This is the latest recevied weather packets stored in our database for station/object WX4SGA. If no packets are shown the sender has not sent any weather packets the latest 10 day(s).
| Time | Temp. | Humidity | Pressure | Rain* | Wind** | Luminosity | Snow |
|---|---|---|---|---|---|---|---|
| 1788113623 | 31.67° C | 73% | 1019 hPa | 0 mm | - | 884 W/m² | - |
| 1788113317 | 31.11° C | 74% | 1019.3 hPa | 0 mm | - | 858 W/m² | - |
| 1788113017 | 31.11° C | 73% | 1019.3 hPa | 0 mm | - | 526 W/m² | - |
| 1788112716 | 31.11° C | 74% | 1019.3 hPa | 0 mm | - | 852 W/m² | - |
| 1788112410 | 31.11° C | 77% | 1019.3 hPa | 0 mm | - | 848 W/m² | - |
| 1788112101 | 30.56° C | 73% | 1019.3 hPa | 0 mm | - | 831 W/m² | - |
| 1788111796 | 31.11° C | 77% | 1019.3 hPa | 0 mm | - | 828 W/m² | - |
| 1788111495 | 30.56° C | 74% | 1019.6 hPa | 0 mm | - | 821 W/m² | - |
| 1788111191 | 30.56° C | 74% | 1019.6 hPa | 0 mm | - | 822 W/m² | - |
| 1788110882 | 30° C | 79% | 1019.6 hPa | 0 mm | - | 824 W/m² | - |
| 1788110578 | 30° C | 80% | 1019.6 hPa | 0 mm | - | 824 W/m² | - |
| 1788110274 | 30° C | 79% | 1019.6 hPa | 0 mm | - | 870 W/m² | - |
| 1788109969 | 30° C | 81% | 1020 hPa | 0 mm | - | 776 W/m² | - |
| 1788109663 | 30° C | 79% | 1020 hPa | 0 mm | - | 866 W/m² | - |
| 1788109363 | 29.44° C | 78% | 1020 hPa | 0 mm | - | 869 W/m² | - |
| 1788109061 | 28.89° C | 84% | 1020.3 hPa | 0 mm | - | 938 W/m² | - |
| 1788108757 | 27.78° C | 90% | 1020.3 hPa | 0 mm | - | 985 W/m² | - |
| 1788108454 | 26.67° C | 93% | 1020.3 hPa | 5.33 mm | - | 1045 W/m² | - |
| 1788108149 | 26.11° C | 94% | 1020.7 hPa | 5.33 mm | - | 296 W/m² | - |
| 1788107846 | 26.67° C | 91% | 1020.7 hPa | 0 mm | - | 135 W/m² | - |
| 1788107542 | 28.33° C | 83% | 1020.7 hPa | 0 mm | - | 143 W/m² | - |
| 1788107236 | 29.44° C | 80% | 1020.7 hPa | 0 mm | - | 145 W/m² | - |
| 1788106932 | 30.56° C | 78% | 1020.7 hPa | 0 mm | - | 200 W/m² | - |
| 1788106627 | 30° C | 78% | 1020.7 hPa | 0 mm | - | 889 W/m² | - |
| 1788106321 | 30° C | 80% | 1020.7 hPa | 0 mm | - | 203 W/m² | - |
* Rain latest hour (hover to see other rain measurements)
** Current wind speed in m/s (hover to see current wind gust speed)